Time;durP1;ratioP1;P1;durP2;ratioP2;P2;SDS_P1;SDS_P2;PMS_P1;PMS_P2;Temp;Humidity;BMP_temperature;BMP_pressure;BME280_temperature;BME280_humidity;BME280_pressure;Samples;Min_cycle;Max_cycle;Signal;HPM_P1;HPM_P2
2021/12/07 00:00:00;;;;;;;;;;;4.50;99.90;5.00;99498.00;;;;340003;28;82547;-92
2021/12/07 00:00:14;;;;;;;;;;;4.50;99.90;5.10;99498.00;;;;338140;28;89742;-94
2021/12/07 00:00:26;;;;;;;;;;;4.50;99.90;5.10;99504.00;;;;338699;28;82490;-87
2021/12/07 00:00:39;;;;;;;;;;;4.50;99.90;5.10;99498.00;;;;334140;29;87427;-87
2021/12/07 00:00:52;;;;;;;;;;;4.50;99.90;5.20;99496.00;;;;336010;29;82435;-87
2021/12/07 00:01:07;;;;;;;;;;;4.50;99.90;5.10;99496.00;;;;334685;29;87374;-90
2021/12/07 00:01:21;;;;;;;;;;;4.50;99.90;5.10;99498.00;;;;337477;29;82499;-89
2021/12/07 00:03:16;;;;;;;;;;;4.50;99.90;5.00;99502.00;;;;401499;22;84678;-95
2021/12/07 00:03:28;;;;;;;;;;;4.50;99.90;5.10;99509.00;;;;342694;28;87534;-89
2021/12/07 00:03:44;;;;;;;;;;;4.50;99.90;5.10;99502.00;;;;345591;28;82393;-88
2021/12/07 00:08:20;;;;;;;;;;;4.50;99.90;5.30;99492.00;;;;337031;28;86495;-96
2021/12/07 00:08:33;;;;;;;;;;;4.50;99.90;5.20;99488.00;;;;339282;28;85205;-96
2021/12/07 00:08:45;;;;;;;;;;;4.50;99.90;5.20;99475.00;;;;337611;28;86301;-96
2021/12/07 00:08:57;;;;;;;;;;;4.50;99.90;5.10;99492.00;;;;337855;28;89263;-96
2021/12/07 00:09:15;;;;;;;;;;;4.50;99.90;5.20;99485.00;;;;336979;28;86030;-96
2021/12/07 00:09:28;;;;;;;;;;;4.50;99.90;5.20;99479.00;;;;337692;28;90970;-96
2021/12/07 00:09:44;;;;;;;;;;;4.50;99.90;5.20;99473.00;;;;335057;28;86006;-96
2021/12/07 00:09:56;;;;;;;;;;;4.50;99.90;5.20;99486.00;;;;337891;28;89018;-96
2021/12/07 00:10:10;;;;;;;;;;;4.60;99.90;5.20;99485.00;;;;336030;28;86220;-96
2021/12/07 00:10:22;;;;;;;;;;;4.60;99.90;5.10;99486.00;;;;335275;29;86249;-96
2021/12/07 00:10:35;;;;;;;;;;;4.60;99.90;5.20;99484.00;;;;335032;28;85534;-96
2021/12/07 00:10:50;;;;;;;;;;;4.60;99.90;5.20;99477.00;;;;335406;28;87374;-96
2021/12/07 00:11:02;;;;;;;;;;;4.60;99.90;5.20;99475.00;;;;342061;28;86014;-96
2021/12/07 00:11:14;;;;;;;;;;;4.60;99.90;5.20;99476.00;;;;335564;29;87483;-96
2021/12/07 00:11:29;;;;;;;;;;;4.60;99.90;5.10;99472.00;;;;341916;28;86066;-96
2021/12/07 00:11:41;;;;;;;;;;;4.60;99.90;5.10;99477.00;;;;336430;29;90204;-96
2021/12/07 00:11:53;;;;;;;;;;;4.60;99.90;5.10;99483.00;;;;342037;28;86181;-96
2021/12/07 00:12:06;;;;;;;;;;;4.60;99.90;5.10;99476.00;;;;340586;28;89716;-96
2021/12/07 00:12:19;;;;;;;;;;;4.60;99.90;5.10;99476.00;;;;336046;29;86360;-96
2021/12/07 00:12:35;;;;;;;;;;;4.50;99.90;5.10;99482.00;;;;336349;29;87803;-96
2021/12/07 00:12:47;;;;;;;;;;;4.50;99.90;5.20;99471.00;;;;339150;28;85488;-96
2021/12/07 00:12:59;;;;;;;;;;;4.60;99.90;5.20;99475.00;;;;342552;28;85925;-96
2021/12/07 00:13:11;;;;;;;;;;;4.50;99.90;5.30;99482.00;;;;335572;29;85974;-96
2021/12/07 00:13:28;;;;;;;;;;;4.60;99.90;5.30;99481.00;;;;336167;29;86430;-96
2021/12/07 00:13:43;;;;;;;;;;;4.60;99.90;5.20;99472.00;;;;335016;29;86080;-96
2021/12/07 00:13:57;;;;;;;;;;;4.60;99.90;5.20;99475.00;;;;332623;29;90471;-96
2021/12/07 00:14:14;;;;;;;;;;;4.60;99.90;5.10;99472.00;;;;333729;28;86088;-96
2021/12/07 00:14:33;;;;;;;;;;;4.60;99.90;5.20;99481.00;;;;335042;29;88110;-96
2021/12/07 00:14:46;;;;;;;;;;;4.60;99.90;5.30;99484.00;;;;333104;28;86216;-96
2021/12/07 00:15:02;;;;;;;;;;;4.60;99.90;5.10;99476.00;;;;333231;29;87435;-96
2021/12/07 00:15:17;;;;;;;;;;;4.60;99.90;5.20;99476.00;;;;340324;28;85167;-96
2021/12/07 00:15:36;;;;;;;;;;;4.60;99.90;5.30;99483.00;;;;339267;28;86240;-96
2021/12/07 00:15:48;;;;;;;;;;;4.60;99.90;5.30;99469.00;;;;340455;28;86163;-96
2021/12/07 00:16:01;;;;;;;;;;;4.60;99.90;5.20;99481.00;;;;334882;28;87131;-95
2021/12/07 00:16:14;;;;;;;;;;;4.60;99.90;5.10;99485.00;;;;333878;29;86074;-96
2021/12/07 00:16:26;;;;;;;;;;;4.60;99.90;5.30;99486.00;;;;335167;29;89588;-96
2021/12/07 00:16:41;;;;;;;;;;;4.60;99.90;5.20;99474.00;;;;336313;28;86177;-96
2021/12/07 00:16:54;;;;;;;;;;;4.60;99.90;5.30;99487.00;;;;336546;28;86545;-96
2021/12/07 00:17:07;;;;;;;;;;;4.60;99.90;5.30;99485.00;;;;337732;28;85988;-96
2021/12/07 00:17:19;;;;;;;;;;;4.60;99.90;5.30;99488.00;;;;337796;28;89429;-96
2021/12/07 00:17:32;;;;;;;;;;;4.60;99.90;5.30;99488.00;;;;342980;28;85909;-96
2021/12/07 00:17:44;;;;;;;;;;;4.60;99.90;5.20;99483.00;;;;342158;28;89276;-96
2021/12/07 00:17:57;;;;;;;;;;;4.60;99.90;5.10;99496.00;;;;341188;28;86683;-96
2021/12/07 00:18:09;;;;;;;;;;;4.60;99.90;5.10;99495.00;;;;336017;29;89408;-96
2021/12/07 00:18:22;;;;;;;;;;;4.60;99.90;5.00;99492.00;;;;336030;29;86098;-96
2021/12/07 00:18:34;;;;;;;;;;;4.60;99.90;5.10;99494.00;;;;336938;29;85737;-96
2021/12/07 00:18:47;;;;;;;;;;;4.60;99.90;5.20;99499.00;;;;336357;29;86766;-96
2021/12/07 00:18:59;;;;;;;;;;;4.60;99.90;5.20;99486.00;;;;335226;28;88727;-95
2021/12/07 00:19:11;;;;;;;;;;;4.60;99.90;5.10;99500.00;;;;335184;29;86239;-96
2021/12/07 00:19:23;;;;;;;;;;;4.60;99.90;5.10;99496.00;;;;336709;29;88089;-95
2021/12/07 00:19:36;;;;;;;;;;;4.60;99.90;5.20;99489.00;;;;336283;28;86100;-96
2021/12/07 00:19:49;;;;;;;;;;;4.60;99.90;5.30;99498.00;;;;336938;29;85244;-96
2021/12/07 00:20:05;;;;;;;;;;;4.60;99.90;5.20;99494.00;;;;336460;28;86709;-95
2021/12/07 00:20:19;;;;;;;;;;;4.60;99.90;5.20;99490.00;;;;342459;28;86814;-94
2021/12/07 00:20:31;;;;;;;;;;;4.60;99.90;5.10;99498.00;;;;341853;28;87718;-96
2021/12/07 00:20:43;;;;;;;;;;;4.60;99.90;5.20;99499.00;;;;342268;28;87912;-96
2021/12/07 00:20:55;;;;;;;;;;;4.60;99.90;5.20;99501.00;;;;335172;29;86495;-96
2021/12/07 00:21:07;;;;;;;;;;;4.60;99.90;5.20;99496.00;;;;334156;29;89483;-96
2021/12/07 00:21:20;;;;;;;;;;;4.60;99.90;5.10;99501.00;;;;336499;28;86469;-96
2021/12/07 00:21:32;;;;;;;;;;;4.60;99.90;5.20;99491.00;;;;340946;28;88802;-95
2021/12/07 00:21:44;;;;;;;;;;;4.60;99.90;5.20;99492.00;;;;340968;28;85177;-96
2021/12/07 00:21:57;;;;;;;;;;;4.60;99.90;5.20;99491.00;;;;335539;29;89327;-96
2021/12/07 00:22:09;;;;;;;;;;;4.60;99.90;5.20;99497.00;;;;337615;28;86113;-96
2021/12/07 00:22:24;;;;;;;;;;;4.60;99.90;5.30;99492.00;;;;335271;29;86277;-96
2021/12/07 00:22:39;;;;;;;;;;;4.60;99.90;5.30;99488.00;;;;333944;29;85961;-96
2021/12/07 00:22:53;;;;;;;;;;;4.60;99.90;5.30;99497.00;;;;335394;28;87766;-96
2021/12/07 00:23:07;;;;;;;;;;;4.70;99.90;5.30;99506.00;;;;335033;29;86103;-96
2021/12/07 00:23:19;;;;;;;;;;;4.60;99.90;5.40;99502.00;;;;336499;29;88182;-96
2021/12/07 00:23:32;;;;;;;;;;;4.70;99.90;5.30;99497.00;;;;334872;28;85999;-96
2021/12/07 00:23:45;;;;;;;;;;;4.60;99.90;5.20;99488.00;;;;337572;28;89590;-96
2021/12/07 00:24:17;;;;;;;;;;;4.60;99.90;5.40;99503.00;;;;335927;29;86581;-96
2021/12/07 00:24:29;;;;;;;;;;;4.60;99.90;5.40;99500.00;;;;336286;28;88161;-96
2021/12/07 00:24:41;;;;;;;;;;;4.70;99.90;5.40;99503.00;;;;342739;28;86109;-96
2021/12/07 00:24:54;;;;;;;;;;;4.70;99.90;5.40;99507.00;;;;336113;29;88458;-96
2021/12/07 00:25:08;;;;;;;;;;;4.70;99.90;5.40;99501.00;;;;338028;28;86073;-95
2021/12/07 00:25:20;;;;;;;;;;;4.70;99.90;5.50;99499.00;;;;343110;28;87320;-95
2021/12/07 00:25:33;;;;;;;;;;;4.70;99.90;5.30;99510.00;;;;340044;28;86125;-96
2021/12/07 00:25:45;;;;;;;;;;;4.70;99.90;5.30;99496.00;;;;341418;28;87934;-96
2021/12/07 00:25:57;;;;;;;;;;;4.70;99.90;5.30;99492.00;;;;341403;28;86202;-96
2021/12/07 00:26:10;;;;;;;;;;;4.70;99.90;5.30;99501.00;;;;336029;29;86134;-96
2021/12/07 00:26:22;;;;;;;;;;;4.70;99.90;5.30;99500.00;;;;337260;28;85312;-96
2021/12/07 00:26:34;;;;;;;;;;;4.70;99.90;5.30;99498.00;;;;341253;28;88971;-96
2021/12/07 00:26:46;;;;;;;;;;;4.70;99.90;5.30;99501.00;;;;342294;28;86222;-96
2021/12/07 00:26:58;;;;;;;;;;;4.70;99.90;5.30;99496.00;;;;337212;28;88421;-96
2021/12/07 00:27:15;;;;;;;;;;;4.70;99.90;5.30;99495.00;;;;337383;28;86157;-96
2021/12/07 00:27:28;;;;;;;;;;;4.70;99.90;5.20;99497.00;;;;337169;28;88322;-96
2021/12/07 00:27:40;;;;;;;;;;;4.70;99.90;5.20;99497.00;;;;337058;28;86550;-96
2021/12/07 00:27:52;;;;;;;;;;;4.70;99.90;5.20;99493.00;;;;336671;29;86352;-95
2021/12/07 00:28:05;;;;;;;;;;;4.70;99.90;5.10;99504.00;;;;336112;29;86096;-96
2021/12/07 00:28:20;;;;;;;;;;;4.70;99.90;5.10;99506.00;;;;335306;29;85896;-96
2021/12/07 00:28:33;;;;;;;;;;;4.70;99.90;5.20;99494.00;;;;334924;29;85641;-96
2021/12/07 00:28:45;;;;;;;;;;;4.70;99.90;5.20;99504.00;;;;336753;29;85295;-96
2021/12/07 00:29:01;;;;;;;;;;;4.70;99.90;5.20;99497.00;;;;337698;28;86150;-96
2021/12/07 00:29:15;;;;;;;;;;;4.70;99.90;5.20;99497.00;;;;343055;28;89056;-96
2021/12/07 00:29:30;;;;;;;;;;;4.70;99.90;5.10;99502.00;;;;343164;28;86235;-96
2021/12/07 00:29:42;;;;;;;;;;;4.70;99.90;5.20;99504.00;;;;342162;28;86740;-96
2021/12/07 00:29:55;;;;;;;;;;;4.70;99.90;5.20;99503.00;;;;337714;28;86204;-96
2021/12/07 00:30:08;;;;;;;;;;;4.70;99.90;5.20;99508.00;;;;338063;28;89617;-95
2021/12/07 00:30:21;;;;;;;;;;;4.70;99.90;5.20;99502.00;;;;338094;28;85890;-94
2021/12/07 00:30:34;;;;;;;;;;;4.70;99.90;5.10;99506.00;;;;343439;28;89172;-91
2021/12/07 00:30:48;;;;;;;;;;;4.70;99.90;5.10;99504.00;;;;341728;28;85491;-96
2021/12/07 00:31:10;;;;;;;;;;;4.70;99.90;5.20;99496.00;;;;343510;28;85885;-96
2021/12/07 00:31:35;;;;;;;;;;;4.70;99.90;5.20;99500.00;;;;342252;28;86151;-92
2021/12/07 00:31:56;;;;;;;;;;;4.70;99.90;5.00;99500.00;;;;342548;28;86500;-96
2021/12/07 00:32:32;;;;;;;;;;;4.60;99.90;5.10;99494.00;;;;338380;28;89694;-90
2021/12/07 00:32:56;;;;;;;;;;;4.60;99.90;5.00;99490.00;;;;341909;28;86711;-95
2021/12/07 00:33:33;;;;;;;;;;;4.60;99.90;5.00;99502.00;;;;341032;28;87495;-95
2021/12/07 00:33:54;;;;;;;;;;;4.60;99.90;5.10;99504.00;;;;339688;28;86476;-89
2021/12/07 00:34:43;;;;;;;;;;;4.60;99.90;4.90;99500.00;;;;338059;28;85210;-92
2021/12/07 00:35:39;;;;;;;;;;;4.60;99.90;4.90;99496.00;;;;334294;29;87714;-96
2021/12/07 00:35:51;;;;;;;;;;;4.60;99.90;4.90;99491.00;;;;334212;29;85959;-91
2021/12/07 00:36:04;;;;;;;;;;;4.50;99.90;4.90;99497.00;;;;336939;28;88815;-90
2021/12/07 00:36:16;;;;;;;;;;;4.50;99.90;4.90;99494.00;;;;340753;28;87543;-93
2021/12/07 00:36:28;;;;;;;;;;;4.50;99.90;4.80;99491.00;;;;341139;28;87920;-93
2021/12/07 00:36:44;;;;;;;;;;;4.50;99.90;4.80;99492.00;;;;341478;28;86164;-93
2021/12/07 00:36:56;;;;;;;;;;;4.50;99.90;4.80;99496.00;;;;335898;29;87871;-91
2021/12/07 00:37:10;;;;;;;;;;;4.50;99.90;4.80;99501.00;;;;334182;29;85369;-95
2021/12/07 00:37:22;;;;;;;;;;;4.50;99.90;4.90;99490.00;;;;334364;28;85829;-93
2021/12/07 00:37:35;;;;;;;;;;;4.50;99.90;5.00;99500.00;;;;335189;28;86114;-95
2021/12/07 00:37:50;;;;;;;;;;;4.40;99.90;4.90;99497.00;;;;337001;29;87411;-95
2021/12/07 00:38:07;;;;;;;;;;;4.50;99.90;5.00;99487.00;;;;337007;29;86031;-90
2021/12/07 00:38:22;;;;;;;;;;;4.40;99.90;5.00;99490.00;;;;338249;28;87494;-95
2021/12/07 00:38:34;;;;;;;;;;;4.50;99.90;5.10;99490.00;;;;336665;28;86070;-94
2021/12/07 00:38:46;;;;;;;;;;;4.50;99.90;5.10;99495.00;;;;336816;28;87927;-95
2021/12/07 00:38:58;;;;;;;;;;;4.50;99.90;5.00;99499.00;;;;335541;28;86173;-94
2021/12/07 00:39:12;;;;;;;;;;;4.50;99.90;4.90;99490.00;;;;335970;28;87455;-92
2021/12/07 00:39:24;;;;;;;;;;;4.50;99.90;4.90;99491.00;;;;335357;29;85386;-92
2021/12/07 00:39:37;;;;;;;;;;;4.50;99.90;4.80;99487.00;;;;337201;28;85701;-94
2021/12/07 00:39:49;;;;;;;;;;;4.50;99.90;4.80;99489.00;;;;336717;29;86015;-95
2021/12/07 00:40:03;;;;;;;;;;;4.50;99.90;4.80;99495.00;;;;336939;28;89589;-92
2021/12/07 00:40:17;;;;;;;;;;;4.40;99.90;5.00;99490.00;;;;336739;28;86106;-95
2021/12/07 00:40:29;;;;;;;;;;;4.50;99.90;5.10;99487.00;;;;336649;29;88255;-95
2021/12/07 00:40:41;;;;;;;;;;;4.50;99.90;5.10;99488.00;;;;336555;29;86016;-93
2021/12/07 00:40:54;;;;;;;;;;;4.50;99.90;5.10;99488.00;;;;335869;28;88648;-92
2021/12/07 00:41:06;;;;;;;;;;;4.50;99.90;5.20;99486.00;;;;336699;29;86050;-94
2021/12/07 00:41:18;;;;;;;;;;;4.50;99.90;5.20;99485.00;;;;334313;29;87876;-95
2021/12/07 00:41:30;;;;;;;;;;;4.50;99.90;5.20;99494.00;;;;342311;28;85388;-95
2021/12/07 00:41:42;;;;;;;;;;;4.50;99.90;5.10;99487.00;;;;342651;28;85169;-96
2021/12/07 00:41:55;;;;;;;;;;;4.50;99.90;5.10;99485.00;;;;344612;28;86714;-96
2021/12/07 00:42:07;;;;;;;;;;;4.50;99.90;5.10;99490.00;;;;338347;28;87514;-94
2021/12/07 00:42:20;;;;;;;;;;;4.50;99.90;5.10;99487.00;;;;343055;28;86428;-96
2021/12/07 00:42:32;;;;;;;;;;;4.50;99.90;5.10;99485.00;;;;343918;28;89342;-95
2021/12/07 00:42:46;;;;;;;;;;;4.50;99.90;5.10;99492.00;;;;343555;28;86000;-92
2021/12/07 00:42:58;;;;;;;;;;;4.50;99.90;5.10;99491.00;;;;345129;28;88909;-91
2021/12/07 00:43:10;;;;;;;;;;;4.60;99.90;5.00;99486.00;;;;343462;28;86181;-95
2021/12/07 00:43:25;;;;;;;;;;;4.60;99.90;4.90;99487.00;;;;343556;28;88537;-95
2021/12/07 00:43:37;;;;;;;;;;;4.50;99.90;5.00;99485.00;;;;336702;28;85408;-90
2021/12/07 00:43:49;;;;;;;;;;;4.50;99.90;5.00;99495.00;;;;337179;29;86929;-91
2021/12/07 00:44:02;;;;;;;;;;;4.50;99.90;4.90;99486.00;;;;342113;28;86058;-93
2021/12/07 00:44:15;;;;;;;;;;;4.50;99.90;5.00;99488.00;;;;341106;28;86731;-94
2021/12/07 00:44:28;;;;;;;;;;;4.50;99.90;5.00;99485.00;;;;339634;28;86042;-93
2021/12/07 00:44:41;;;;;;;;;;;4.50;99.90;5.00;99486.00;;;;333234;28;86468;-91
2021/12/07 00:44:53;;;;;;;;;;;4.50;99.90;5.10;99493.00;;;;335439;28;86068;-95
2021/12/07 00:45:05;;;;;;;;;;;4.50;99.90;5.10;99488.00;;;;334363;28;87798;-94
2021/12/07 00:45:20;;;;;;;;;;;4.50;99.90;5.00;99487.00;;;;335438;29;87651;-94
2021/12/07 00:45:34;;;;;;;;;;;4.50;99.90;5.00;99487.00;;;;334288;28;88587;-93
2021/12/07 00:45:47;;;;;;;;;;;4.50;99.90;4.90;99488.00;;;;337048;28;85394;-91
2021/12/07 00:46:01;;;;;;;;;;;4.50;99.90;4.90;99490.00;;;;338413;28;86759;-93
2021/12/07 00:46:13;;;;;;;;;;;4.50;99.90;5.00;99494.00;;;;338510;28;85594;-89
2021/12/07 00:46:27;;;;;;;;;;;4.50;99.90;5.00;99480.00;;;;339840;28;86781;-92
2021/12/07 00:46:39;;;;;;;;;;;4.50;99.90;4.90;99483.00;;;;338720;28;86006;-88
2021/12/07 00:46:51;;;;;;;;;;;4.40;99.90;4.90;99474.00;;;;335654;28;86707;-96
2021/12/07 00:47:03;;;;;;;;;;;4.40;99.90;4.90;99486.00;;;;337868;28;87256;-94
2021/12/07 00:47:15;;;;;;;;;;;4.40;99.90;4.90;99489.00;;;;337082;28;89294;-84
2021/12/07 00:47:27;;;;;;;;;;;4.40;99.90;4.90;99484.00;;;;335527;29;86031;-94
2021/12/07 00:47:39;;;;;;;;;;;4.40;99.90;4.90;99491.00;;;;341157;28;86509;-91
2021/12/07 00:47:52;;;;;;;;;;;4.50;99.90;4.80;99484.00;;;;341022;28;85278;-94
2021/12/07 00:48:05;;;;;;;;;;;4.50;99.90;4.90;99483.00;;;;343438;28;85872;-93
2021/12/07 00:48:17;;;;;;;;;;;4.40;99.90;4.80;99487.00;;;;337997;28;86578;-93
2021/12/07 00:48:29;;;;;;;;;;;4.50;99.90;4.80;99488.00;;;;339013;28;87409;-93
2021/12/07 00:48:42;;;;;;;;;;;4.40;99.90;4.90;99487.00;;;;335812;29;86134;-91
2021/12/07 00:48:54;;;;;;;;;;;4.40;99.90;4.90;99487.00;;;;336988;29;87734;-95
2021/12/07 00:49:09;;;;;;;;;;;4.40;99.90;4.90;99494.00;;;;336415;28;86176;-95
2021/12/07 00:49:22;;;;;;;;;;;4.40;99.90;4.80;99481.00;;;;335702;28;89854;-93
2021/12/07 00:49:34;;;;;;;;;;;4.40;99.90;4.90;99486.00;;;;335297;28;86145;-92
2021/12/07 00:49:46;;;;;;;;;;;4.50;99.90;5.00;99481.00;;;;335755;29;86486;-93
2021/12/07 00:49:58;;;;;;;;;;;4.40;99.90;5.00;99491.00;;;;335380;29;87737;-91
2021/12/07 00:50:11;;;;;;;;;;;4.40;99.90;5.00;99482.00;;;;335635;28;88131;-95
2021/12/07 00:50:24;;;;;;;;;;;4.50;99.90;5.00;99481.00;;;;336930;29;86003;-95
2021/12/07 00:50:36;;;;;;;;;;;4.40;99.90;5.00;99484.00;;;;338081;28;88402;-93
2021/12/07 00:50:48;;;;;;;;;;;4.40;99.90;5.00;99488.00;;;;336288;28;87520;-95
2021/12/07 00:51:00;;;;;;;;;;;4.40;99.90;4.90;99478.00;;;;338272;28;89412;-92
2021/12/07 00:51:12;;;;;;;;;;;4.50;99.90;4.90;99485.00;;;;343490;28;86074;-94
2021/12/07 00:51:24;;;;;;;;;;;4.40;99.90;4.90;99477.00;;;;343477;28;89405;-93
2021/12/07 00:51:36;;;;;;;;;;;4.40;99.90;4.90;99480.00;;;;342973;28;86549;-94
2021/12/07 00:51:48;;;;;;;;;;;4.40;99.90;4.90;99474.00;;;;342299;28;89476;-94
2021/12/07 00:52:00;;;;;;;;;;;4.40;99.90;4.90;99478.00;;;;342068;28;88268;-91
2021/12/07 00:52:12;;;;;;;;;;;4.40;99.90;5.00;99477.00;;;;342301;28;88835;-94
2021/12/07 00:52:25;;;;;;;;;;;4.40;99.90;4.90;99478.00;;;;336749;28;86080;-90
2021/12/07 00:52:37;;;;;;;;;;;4.40;99.90;4.90;99476.00;;;;337572;28;86592;-95
2021/12/07 00:52:49;;;;;;;;;;;4.50;99.90;4.90;99479.00;;;;336425;28;86533;-96
2021/12/07 00:53:02;;;;;;;;;;;4.40;99.90;4.80;99486.00;;;;338509;28;87507;-93
2021/12/07 00:53:14;;;;;;;;;;;4.40;99.90;4.90;99482.00;;;;343764;28;86078;-93
2021/12/07 00:53:27;;;;;;;;;;;4.40;99.90;4.80;99480.00;;;;342368;28;86413;-92
2021/12/07 00:53:39;;;;;;;;;;;4.40;99.90;4.90;99486.00;;;;343832;28;86054;-91
2021/12/07 00:53:52;;;;;;;;;;;4.40;99.90;4.90;99485.00;;;;342289;28;88284;-90
2021/12/07 00:54:04;;;;;;;;;;;4.40;99.90;4.90;99477.00;;;;335462;28;85419;-93
2021/12/07 00:54:16;;;;;;;;;;;4.40;99.90;4.90;99479.00;;;;338226;28;87097;-93
2021/12/07 00:54:28;;;;;;;;;;;4.40;99.90;4.90;99486.00;;;;337884;28;86050;-94
2021/12/07 00:54:41;;;;;;;;;;;4.40;99.90;5.00;99490.00;;;;335511;28;88296;-91
2021/12/07 00:54:53;;;;;;;;;;;4.40;99.90;4.90;99502.00;;;;336983;29;85986;-91
2021/12/07 00:55:11;;;;;;;;;;;4.40;99.90;4.90;99499.00;;;;336872;29;86827;-93
2021/12/07 00:55:27;;;;;;;;;;;4.40;99.90;4.80;99493.00;;;;336660;28;86196;-88
2021/12/07 00:55:44;;;;;;;;;;;4.40;99.90;4.80;99491.00;;;;339650;28;88982;-92
2021/12/07 00:55:58;;;;;;;;;;;4.40;99.90;4.80;99497.00;;;;338095;28;85939;-94
2021/12/07 00:56:11;;;;;;;;;;;4.40;99.90;4.80;99507.00;;;;335597;28;88244;-93
2021/12/07 00:56:23;;;;;;;;;;;4.40;99.90;4.90;99503.00;;;;334422;29;85339;-91
2021/12/07 00:56:36;;;;;;;;;;;4.40;99.90;5.00;99492.00;;;;335837;28;85650;-95
2021/12/07 00:56:48;;;;;;;;;;;4.40;99.90;4.90;99493.00;;;;335395;28;86021;-92
2021/12/07 00:57:02;;;;;;;;;;;4.40;99.90;5.00;99503.00;;;;337016;28;86496;-87
2021/12/07 00:57:14;;;;;;;;;;;4.40;99.90;5.10;99500.00;;;;341027;28;86159;-86
2021/12/07 00:57:26;;;;;;;;;;;4.40;99.90;5.00;99499.00;;;;340978;28;89140;-94
2021/12/07 00:57:38;;;;;;;;;;;4.40;99.90;5.00;99505.00;;;;340018;28;86035;-91
2021/12/07 00:57:53;;;;;;;;;;;4.40;99.90;5.00;99502.00;;;;335815;28;86483;-92
2021/12/07 00:58:16;;;;;;;;;;;4.40;99.90;5.00;99509.00;;;;336971;29;85943;-89
2021/12/07 00:58:29;;;;;;;;;;;4.40;99.90;5.10;99519.00;;;;343896;28;86791;-92
2021/12/07 00:58:41;;;;;;;;;;;4.40;99.90;5.10;99516.00;;;;343808;28;85164;-91
2021/12/07 00:58:54;;;;;;;;;;;4.40;99.90;5.10;99520.00;;;;345280;28;87227;-89
2021/12/07 00:59:06;;;;;;;;;;;4.50;99.90;5.00;99511.00;;;;342121;28;86276;-89
2021/12/07 00:59:19;;;;;;;;;;;4.40;99.90;5.00;99507.00;;;;342525;28;86317;-95
2021/12/07 00:59:31;;;;;;;;;;;4.50;99.90;5.00;99507.00;;;;339546;28;86012;-91
2021/12/07 00:59:43;;;;;;;;;;;4.50;99.90;5.10;99507.00;;;;336067;29;86664;-94
2021/12/07 00:59:55;;;;;;;;;;;4.50;99.90;5.10;99503.00;;;;337878;28;86066;-94
2021/12/07 01:00:15;;;;;;;;;;;4.50;99.90;5.00;99516.00;;;;336737;28;87822;-96
2021/12/07 01:00:29;;;;;;;;;;;4.50;99.90;4.90;99505.00;;;;335154;28;86266;-96
2021/12/07 01:00:41;;;;;;;;;;;4.50;99.90;4.90;99512.00;;;;334967;29;88879;-95
2021/12/07 01:00:59;;;;;;;;;;;4.50;99.90;4.90;99517.00;;;;337495;28;85171;-96
2021/12/07 01:01:13;;;;;;;;;;;4.50;99.90;4.90;99516.00;;;;333554;29;88701;-96
2021/12/07 01:01:25;;;;;;;;;;;4.50;99.90;4.90;99523.00;;;;336042;28;86152;-96
2021/12/07 01:01:38;;;;;;;;;;;4.50;99.90;4.80;99517.00;;;;337443;28;88987;-96
2021/12/07 01:01:51;;;;;;;;;;;4.50;99.90;4.80;99529.00;;;;335716;29;86722;-96
2021/12/07 01:02:03;;;;;;;;;;;4.50;99.90;4.80;99517.00;;;;336164;29;88078;-96
2021/12/07 01:02:15;;;;;;;;;;;4.40;99.90;4.80;99518.00;;;;333463;29;86078;-96
2021/12/07 01:02:28;;;;;;;;;;;4.40;99.90;4.80;99513.00;;;;335799;29;88934;-96
2021/12/07 01:02:40;;;;;;;;;;;4.50;99.90;4.90;99519.00;;;;335986;29;86092;-94
2021/12/07 01:02:56;;;;;;;;;;;4.50;99.90;4.90;99518.00;;;;334731;28;88913;-96
2021/12/07 01:03:09;;;;;;;;;;;4.40;99.90;4.80;99518.00;;;;335882;28;85823;-96
2021/12/07 01:03:22;;;;;;;;;;;4.40;99.90;4.80;99511.00;;;;336177;29;86741;-96
2021/12/07 01:03:34;;;;;;;;;;;4.40;99.90;4.80;99514.00;;;;334499;29;86139;-96
2021/12/07 01:03:48;;;;;;;;;;;4.40;99.90;4.80;99525.00;;;;333703;28;88948;-96
2021/12/07 01:04:00;;;;;;;;;;;4.40;99.90;4.80;99512.00;;;;334413;29;87369;-92
2021/12/07 01:04:12;;;;;;;;;;;4.40;99.90;4.80;99516.00;;;;342301;28;86977;-96
2021/12/07 01:04:25;;;;;;;;;;;4.40;99.90;4.80;99512.00;;;;342784;28;86078;-96
2021/12/07 01:04:38;;;;;;;;;;;4.40;99.90;4.90;99523.00;;;;338907;28;86352;-96
2021/12/07 01:04:57;;;;;;;;;;;4.40;99.90;4.80;99518.00;;;;337319;28;85930;-96
2021/12/07 01:05:15;;;;;;;;;;;4.40;99.90;4.90;99517.00;;;;336200;28;87932;-96
2021/12/07 01:05:31;;;;;;;;;;;4.40;99.90;4.80;99516.00;;;;334073;29;85345;-94
2021/12/07 01:05:49;;;;;;;;;;;4.40;99.90;4.80;99519.00;;;;337665;28;84864;-96
2021/12/07 01:07:00;;;;;;;;;;;4.40;99.90;4.80;99519.00;;;;337010;28;86180;-94
2021/12/07 01:07:23;;;;;;;;;;;4.40;99.90;5.20;99514.00;;;;332049;29;87446;-95
2021/12/07 01:07:36;;;;;;;;;;;4.40;99.90;5.00;99515.00;;;;339900;28;88697;-93
2021/12/07 01:08:21;;;;;;;;;;;4.50;99.90;5.00;99514.00;;;;336011;28;87683;-96
2021/12/07 01:24:37;;;;;;;;;;;4.50;99.90;5.00;99520.00;;;;335619;29;86132;-96
2021/12/07 01:24:42;;;;;;;;;;;4.30;99.90;4.90;99524.00;;;;332937;29;85191;-96
2021/12/07 01:24:55;;;;;;;;;;;4.30;99.90;4.80;99540.00;;;;335647;29;86079;-96
2021/12/07 01:25:07;;;;;;;;;;;4.30;99.90;4.70;99541.00;;;;335682;28;89726;-96
2021/12/07 01:25:20;;;;;;;;;;;4.30;99.90;4.70;99541.00;;;;335366;28;85995;-96
2021/12/07 01:25:36;;;;;;;;;;;4.30;99.90;4.70;99547.00;;;;334624;28;88446;-95
2021/12/07 01:25:50;;;;;;;;;;;4.30;99.90;4.70;99544.00;;;;331808;29;86032;-96
2021/12/07 01:26:02;;;;;;;;;;;4.30;99.90;4.60;99552.00;;;;333433;28;88166;-96
2021/12/07 01:26:14;;;;;;;;;;;4.30;99.90;4.70;99547.00;;;;333420;29;85952;-96
2021/12/07 01:26:28;;;;;;;;;;;4.30;99.90;4.80;99547.00;;;;333503;29;85967;-96
2021/12/07 01:26:40;;;;;;;;;;;4.30;99.90;4.80;99540.00;;;;334541;28;85353;-95
2021/12/07 01:26:54;;;;;;;;;;;4.30;99.90;4.90;99542.00;;;;334656;28;88096;-95
2021/12/07 01:27:07;;;;;;;;;;;4.30;99.90;4.90;99546.00;;;;334495;29;86058;-96
2021/12/07 01:27:21;;;;;;;;;;;4.30;99.90;4.90;99553.00;;;;333371;29;88105;-95
2021/12/07 01:27:33;;;;;;;;;;;4.30;99.90;4.90;99550.00;;;;334425;28;87468;-96
2021/12/07 01:27:48;;;;;;;;;;;4.30;99.90;4.80;99549.00;;;;334377;28;90113;-96
2021/12/07 01:28:07;;;;;;;;;;;4.30;99.90;4.80;99539.00;;;;334212;29;86667;-94
2021/12/07 01:28:31;;;;;;;;;;;4.30;99.90;4.80;99541.00;;;;334476;28;89347;-95
2021/12/07 01:28:45;;;;;;;;;;;4.30;99.90;4.70;99557.00;;;;334411;29;86044;-96
2021/12/07 01:28:57;;;;;;;;;;;4.30;99.90;4.80;99551.00;;;;333193;29;87651;-96
2021/12/07 01:29:09;;;;;;;;;;;4.30;99.90;4.80;99544.00;;;;334288;29;85336;-96
2021/12/07 01:29:24;;;;;;;;;;;4.30;99.90;4.90;99542.00;;;;334407;28;88520;-95
2021/12/07 01:29:39;;;;;;;;;;;4.30;99.90;4.90;99548.00;;;;335593;28;86117;-96
2021/12/07 01:30:04;;;;;;;;;;;4.30;99.90;4.90;99544.00;;;;334602;29;86503;-96
2021/12/07 01:30:21;;;;;;;;;;;4.30;99.90;4.80;99544.00;;;;335497;28;86071;-96
2021/12/07 01:30:42;;;;;;;;;;;4.30;99.90;4.70;99540.00;;;;337216;28;88138;-96
2021/12/07 01:31:29;;;;;;;;;;;4.30;99.90;4.70;99553.00;;;;334237;28;86010;-96
2021/12/07 01:31:53;;;;;;;;;;;4.30;99.90;4.60;99552.00;;;;333295;29;88007;-96
2021/12/07 01:32:38;;;;;;;;;;;4.30;99.90;4.60;99544.00;;;;334603;28;86657;-96
2021/12/07 01:33:07;;;;;;;;;;;4.20;99.90;4.60;99556.00;;;;332321;28;87713;-95
2021/12/07 01:33:41;;;;;;;;;;;4.20;99.90;4.60;99560.00;;;;334629;29;86775;-95
2021/12/07 01:34:20;;;;;;;;;;;4.20;99.90;4.70;99553.00;;;;336589;28;86630;-96
2021/12/07 01:35:28;;;;;;;;;;;4.20;99.90;4.60;99564.00;;;;334037;29;85783;-95
2021/12/07 01:40:23;;;;;;;;;;;4.20;99.90;4.80;99570.00;;;;334426;29;87560;-92
2021/12/07 01:41:15;;;;;;;;;;;4.30;99.90;4.90;99577.00;;;;336872;29;87804;-94
2021/12/07 01:43:36;;;;;;;;;;;4.30;99.90;4.70;99576.00;;;;334374;29;87718;-95
2021/12/07 01:45:56;;;;;;;;;;;4.30;99.90;5.00;99579.00;;;;337234;29;86029;-93
2021/12/07 01:46:33;;;;;;;;;;;4.30;99.90;4.80;99571.00;;;;335798;29;90179;-91
2021/12/07 01:48:01;;;;;;;;;;;4.20;99.90;4.60;99571.00;;;;336993;28;86085;-96
2021/12/07 01:50:13;;;;;;;;;;;4.20;99.90;4.80;99582.00;;;;335171;29;86543;-96
2021/12/07 01:59:36;;;;;;;;;;;4.10;99.90;4.70;99591.00;;;;334494;29;86059;-96
2021/12/07 01:59:49;;;;;;;;;;;4.10;99.90;4.70;99596.00;;;;334938;29;87745;-96
2021/12/07 02:00:01;;;;;;;;;;;4.10;99.90;4.80;99589.00;;;;331825;29;86191;-95